Time;durP1;ratioP1;P1;durP2;ratioP2;P2;SDS_P1;SDS_P2;PMS_P1;PMS_P2;Temp;Humidity;BMP_temperature;BMP_pressure;BME280_temperature;BME280_humidity;BME280_pressure;Samples;Min_cycle;Max_cycle;Signal;HPM_P1;HPM_P2
2020/12/27 00:02:24;;;;;;;7.27;4.10;;;;;;;-4.10;74.83;99115.28;4902515;29;20362;-63
2020/12/27 00:04:49;;;;;;;9.47;5.17;;;;;;;-4.00;73.92;99112.44;4901402;29;20044;-63
2020/12/27 00:07:15;;;;;;;9.30;5.40;;;;;;;-4.04;74.24;99108.06;4902315;29;20028;-63
2020/12/27 00:09:44;;;;;;;9.77;4.90;;;;;;;-3.99;74.32;99106.63;4910408;29;20043;-63
2020/12/27 00:12:13;;;;;;;9.73;5.30;;;;;;;-3.97;74.67;99116.69;4920874;29;20043;-63
2020/12/27 00:14:39;;;;;;;10.67;6.47;;;;;;;-4.10;74.78;99110.28;4920120;29;20040;-63
2020/12/27 00:17:05;;;;;;;7.97;5.23;;;;;;;-4.05;74.75;99108.84;4920820;29;20422;-62
2020/12/27 00:19:31;;;;;;;9.47;4.30;;;;;;;-4.08;75.27;99107.84;4917282;29;20032;-62
2020/12/27 00:21:56;;;;;;;9.57;4.60;;;;;;;-4.09;74.62;99096.97;4921393;29;20046;-62
2020/12/27 00:24:22;;;;;;;7.07;3.90;;;;;;;-4.04;74.11;99095.56;4887360;29;20662;-63
2020/12/27 00:26:47;;;;;;;8.20;4.27;;;;;;;-3.91;73.87;99086.94;4902488;29;20176;-63
2020/12/27 00:29:13;;;;;;;7.23;4.70;;;;;;;-3.93;73.81;99081.84;4901786;29;20037;-63
2020/12/27 00:31:38;;;;;;;6.90;4.57;;;;;;;-3.98;73.94;99078.28;4902619;29;20040;-63
2020/12/27 00:34:04;;;;;;;7.30;4.33;;;;;;;-3.96;74.51;99085.88;4902624;29;20092;-62
2020/12/27 00:36:29;;;;;;;6.37;4.23;;;;;;;-4.04;74.05;99080.53;4915725;29;20051;-63
2020/12/27 00:38:54;;;;;;;8.87;4.77;;;;;;;-4.09;74.15;99084.47;4920058;29;20099;-62
2020/12/27 00:41:29;;;;;;;9.87;5.50;;;;;;;-4.11;74.78;99080.16;4919765;29;20032;-63
2020/12/27 00:43:54;;;;;;;9.85;4.97;;;;;;;-4.28;74.74;99080.25;4920019;29;20043;-66
2020/12/27 00:46:20;;;;;;;11.43;5.60;;;;;;;-4.28;75.39;99076.88;4891728;29;20037;-62
2020/12/27 00:48:46;;;;;;;11.33;5.80;;;;;;;-4.30;75.17;99069.31;4901038;29;20391;-63
2020/12/27 00:51:11;;;;;;;10.50;4.63;;;;;;;-4.31;74.89;99069.25;4910325;29;20115;-62
2020/12/27 00:53:37;;;;;;;7.07;4.63;;;;;;;-4.34;75.30;99069.13;4919902;29;20469;-63
2020/12/27 00:56:02;;;;;;;12.13;6.23;;;;;;;-4.31;75.00;99066.75;4919354;29;20028;-63
2020/12/27 00:58:29;;;;;;;9.80;5.40;;;;;;;-4.36;75.60;99068.16;4919892;29;20131;-63
2020/12/27 01:00:59;;;;;;;10.67;5.87;;;;;;;-4.38;75.93;99072.25;4918966;29;20119;-64
2020/12/27 01:03:24;;;;;;;11.97;5.90;;;;;;;-4.44;75.73;99061.97;4920299;29;20036;-63
2020/12/27 01:05:50;;;;;;;11.60;5.70;;;;;;;-4.37;75.58;99058.97;4914367;29;20181;-63
2020/12/27 01:08:17;;;;;;;12.87;6.60;;;;;;;-4.43;75.29;99059.53;4900971;29;20037;-63
2020/12/27 01:10:42;;;;;;;14.13;7.53;;;;;;;-4.52;76.16;99070.75;4886152;29;20048;-63
2020/12/27 01:13:08;;;;;;;16.27;7.70;;;;;;;-4.55;76.05;99058.97;4906742;29;20453;-62
2020/12/27 01:15:33;;;;;;;15.93;7.00;;;;;;;-4.61;75.74;99059.53;4924998;29;20099;-64
2020/12/27 01:17:58;;;;;;;11.77;6.37;;;;;;;-4.62;75.58;99046.94;4923709;29;20371;-64
2020/12/27 01:20:24;;;;;;;9.40;5.67;;;;;;;-4.56;74.92;99046.38;4915255;29;20050;-63
2020/12/27 01:22:49;;;;;;;9.67;5.80;;;;;;;-4.55;75.86;99043.97;4904193;29;20460;-64
2020/12/27 01:25:15;;;;;;;8.47;4.33;;;;;;;-4.59;75.56;99051.25;4901074;29;20036;-63
2020/12/27 01:27:41;;;;;;;7.93;4.17;;;;;;;-4.56;75.98;99042.25;4901196;29;20040;-63
2020/12/27 01:30:07;;;;;;;9.00;4.57;;;;;;;-4.57;75.33;99037.16;4884161;29;20033;-63
2020/12/27 01:32:32;;;;;;;6.80;4.50;;;;;;;-4.46;75.37;99031.03;4882173;29;20541;-63
2020/12/27 01:34:57;;;;;;;7.00;4.37;;;;;;;-4.57;75.59;99022.16;4911107;29;20028;-64
2020/12/27 01:37:23;;;;;;;8.07;3.97;;;;;;;-4.49;74.89;99019.22;4919377;29;20493;-63
2020/12/27 01:39:48;;;;;;;7.87;4.10;;;;;;;-4.48;74.99;99005.06;4918800;29;20111;-64
2020/12/27 01:42:14;;;;;;;6.20;4.00;;;;;;;-4.49;74.29;98999.19;4919109;29;20593;-63
2020/12/27 01:44:39;;;;;;;7.30;4.43;;;;;;;-4.50;74.97;99007.53;4918234;29;20142;-63
2020/12/27 01:47:16;;;;;;;6.77;3.80;;;;;;;-4.49;75.41;98990.84;4919215;29;20040;-64
2020/12/27 01:49:46;;;;;;;7.63;3.83;;;;;;;-4.53;75.22;98986.47;4910446;29;20024;-63
2020/12/27 01:52:11;;;;;;;7.50;3.90;;;;;;;-4.61;75.22;98986.13;4919493;29;20043;-63
2020/12/27 01:54:39;;;;;;;8.33;4.03;;;;;;;-4.67;75.07;98981.72;4917499;29;20369;-62
2020/12/27 01:57:13;;;;;;;7.13;3.73;;;;;;;-4.70;75.05;98984.06;4919250;29;20074;-64
2020/12/27 01:59:39;;;;;;;8.23;4.87;;;;;;;-4.87;76.22;98969.94;4917061;29;20492;-62
2020/12/27 02:02:06;;;;;;;5.50;3.50;;;;;;;-4.88;75.74;98973.22;4919631;29;20038;-62
2020/12/27 02:04:32;;;;;;;5.97;3.73;;;;;;;-4.94;76.05;98962.09;4917728;29;20426;-62
2020/12/27 02:06:58;;;;;;;6.53;3.70;;;;;;;-4.98;76.30;98961.09;4882132;29;20451;-63
2020/12/27 02:09:24;;;;;;;5.77;3.30;;;;;;;-4.99;75.69;98958.50;4897028;29;20044;-62
2020/12/27 02:12:10;;;;;;;4.40;3.10;;;;;;;-4.97;76.32;98951.94;4899015;29;20029;-62
2020/12/27 02:14:37;;;;;;;5.07;3.20;;;;;;;-5.01;75.90;98943.47;4917925;29;20051;-63
2020/12/27 02:17:04;;;;;;;7.73;3.77;;;;;;;-5.02;75.60;98951.72;4901238;29;20462;-64
2020/12/27 02:19:30;;;;;;;6.13;3.47;;;;;;;-5.04;76.06;98943.28;4901669;29;20092;-63
2020/12/27 02:21:55;;;;;;;8.33;3.90;;;;;;;-5.11;76.10;98938.81;4899088;29;20036;-63
2020/12/27 02:24:21;;;;;;;8.57;4.90;;;;;;;-5.13;75.77;98932.84;4899041;29;20047;-63
2020/12/27 02:27:00;;;;;;;9.37;4.73;;;;;;;-5.02;75.95;98935.88;4899270;29;20068;-63
2020/12/27 02:29:27;;;;;;;6.63;4.53;;;;;;;-5.04;76.32;98929.94;4913397;29;20054;-63
2020/12/27 02:31:53;;;;;;;7.43;5.07;;;;;;;-5.13;76.50;98927.88;4917965;29;20040;-63
2020/12/27 02:34:23;;;;;;;8.37;4.77;;;;;;;-5.16;76.72;98912.75;4891899;29;20069;-63
2020/12/27 02:36:49;;;;;;;7.00;5.37;;;;;;;-5.20;76.75;98908.38;4880664;29;20049;-63
2020/12/27 02:39:17;;;;;;;8.67;4.67;;;;;;;-5.16;76.69;98902.75;4874656;29;20182;-62
2020/12/27 02:41:42;;;;;;;8.57;4.50;;;;;;;-5.26;76.47;98893.94;4898576;29;20043;-63
2020/12/27 02:44:09;;;;;;;7.07;3.87;;;;;;;-5.27;76.92;98892.25;4907688;29;20426;-62
2020/12/27 02:46:35;;;;;;;6.60;4.03;;;;;;;-5.27;77.37;98896.41;4918214;29;20044;-63
2020/12/27 02:49:01;;;;;;;8.87;4.30;;;;;;;-5.21;76.53;98895.03;4909184;29;20072;-62
2020/12/27 02:51:28;;;;;;;9.80;5.27;;;;;;;-5.19;76.20;98897.59;4882629;29;20033;-63
2020/12/27 02:53:54;;;;;;;13.57;5.57;;;;;;;-5.21;76.51;98902.53;4904253;29;20059;-62
2020/12/27 02:56:26;;;;;;;10.97;5.57;;;;;;;-5.27;76.10;98897.25;4917770;29;20072;-63
2020/12/27 02:58:54;;;;;;;18.10;7.47;;;;;;;-5.35;76.38;98888.56;4917175;29;20032;-62
2020/12/27 03:01:19;;;;;;;14.63;5.93;;;;;;;-5.39;76.84;98896.69;4917790;29;20043;-62
2020/12/27 03:03:45;;;;;;;8.87;5.40;;;;;;;-5.36;76.04;98880.97;4916764;29;20102;-63
2020/12/27 03:06:11;;;;;;;10.03;4.93;;;;;;;-5.44;76.24;98874.75;4917987;29;20040;-63
2020/12/27 03:08:37;;;;;;;9.90;5.10;;;;;;;-5.48;76.23;98876.28;4914716;29;20123;-62
2020/12/27 03:11:03;;;;;;;6.17;4.47;;;;;;;-5.54;76.33;98870.97;4899085;29;20040;-63
2020/12/27 03:13:29;;;;;;;7.50;3.57;;;;;;;-5.54;76.35;98871.81;4898203;29;20127;-63
2020/12/27 03:15:54;;;;;;;6.23;3.63;;;;;;;-5.58;76.28;98864.97;4880747;29;20065;-62
2020/12/27 03:18:23;;;;;;;13.63;6.33;;;;;;;-5.55;76.40;98855.13;4879865;29;20084;-62
2020/12/27 03:20:50;;;;;;;14.43;7.47;;;;;;;-5.59;76.79;98852.41;4894672;29;20053;-62
2020/12/27 03:23:15;;;;;;;20.00;7.23;;;;;;;-5.63;77.24;98853.03;4898307;29;20041;-63
2020/12/27 03:25:42;;;;;;;14.80;6.63;;;;;;;-5.59;77.63;98853.25;4891944;29;20347;-63
2020/12/27 03:28:07;;;;;;;15.00;6.43;;;;;;;-5.66;77.20;98846.28;4901400;29;20037;-63
2020/12/27 03:30:33;;;;;;;8.67;4.57;;;;;;;-5.67;77.16;98849.56;4898852;29;20048;-63
2020/12/27 03:32:58;;;;;;;6.03;4.00;;;;;;;-5.68;77.43;98837.84;4898787;29;20037;-63
2020/12/27 03:35:23;;;;;;;7.00;4.30;;;;;;;-5.72;77.54;98840.97;4898474;29;20407;-62
2020/12/27 03:37:49;;;;;;;5.77;3.67;;;;;;;-5.72;77.39;98832.63;4881039;29;22377;-62
2020/12/27 03:40:14;;;;;;;5.13;3.57;;;;;;;-5.70;76.88;98826.94;4898951;29;20036;-63
2020/12/27 03:42:40;;;;;;;6.97;4.03;;;;;;;-5.74;77.24;98816.75;4897173;29;20056;-63
2020/12/27 03:45:05;;;;;;;5.17;3.33;;;;;;;-5.73;77.08;98814.28;4897146;29;20127;-62
2020/12/27 03:47:31;;;;;;;4.50;3.57;;;;;;;-5.75;77.35;98812.53;4881999;29;20032;-63
2020/12/27 03:49:56;;;;;;;8.57;3.77;;;;;;;-5.78;77.21;98818.25;4882172;29;20112;-62
2020/12/27 03:52:22;;;;;;;8.83;3.43;;;;;;;-5.78;77.13;98817.38;4898268;29;20155;-63
2020/12/27 03:54:47;;;;;;;4.00;2.87;;;;;;;-5.81;77.69;98814.75;4898564;29;20395;-64
2020/12/27 03:57:12;;;;;;;6.93;3.30;;;;;;;-5.82;77.92;98798.91;4898947;29;20171;-62
2020/12/27 03:59:38;;;;;;;4.07;2.93;;;;;;;-5.74;78.04;98791.78;4897271;29;20036;-63
2020/12/27 04:02:03;;;;;;;3.67;2.87;;;;;;;-5.75;76.85;98787.56;4898487;29;20040;-63
2020/12/27 04:04:29;;;;;;;5.20;3.13;;;;;;;-5.79;77.34;98788.22;4897579;29;20048;-63
2020/12/27 04:06:54;;;;;;;4.77;2.93;;;;;;;-5.82;76.55;98778.09;4898538;29;20116;-63
2020/12/27 04:09:20;;;;;;;3.67;3.10;;;;;;;-5.85;76.76;98772.94;4897812;29;20041;-62
2020/12/27 04:11:45;;;;;;;4.73;2.20;;;;;;;-5.87;76.73;98767.06;4898545;29;20040;-64
2020/12/27 04:14:11;;;;;;;2.93;2.23;;;;;;;-5.86;77.09;98759.63;4897415;29;20047;-63
2020/12/27 04:16:36;;;;;;;5.00;2.43;;;;;;;-5.84;76.57;98754.69;4898800;29;20063;-63
2020/12/27 04:19:02;;;;;;;5.17;2.40;;;;;;;-5.83;76.51;98764.75;4897261;29;20048;-63
2020/12/27 04:21:27;;;;;;;3.47;2.80;;;;;;;-5.83;76.05;98753.91;4899176;29;20055;-63
2020/12/27 04:23:52;;;;;;;3.73;2.13;;;;;;;-5.82;76.02;98753.13;4898289;29;20033;-63
2020/12/27 04:26:18;;;;;;;4.40;2.27;;;;;;;-5.83;75.73;98757.25;4902631;29;20048;-63
2020/12/27 04:28:43;;;;;;;5.53;2.40;;;;;;;-5.88;75.71;98752.84;4901048;29;20039;-63
2020/12/27 04:31:13;;;;;;;3.20;2.10;;;;;;;-5.84;76.24;98747.19;4901171;29;20108;-63
2020/12/27 04:33:39;;;;;;;3.20;2.60;;;;;;;-5.87;76.70;98734.63;4901449;29;20060;-63
2020/12/27 04:36:05;;;;;;;4.70;2.90;;;;;;;-5.91;76.94;98730.25;4901156;29;20064;-62
2020/12/27 04:38:30;;;;;;;2.80;2.13;;;;;;;-5.91;76.47;98727.78;4901008;29;20045;-63
2020/12/27 04:40:56;;;;;;;4.17;2.57;;;;;;;-5.86;75.90;98729.66;4900814;29;20433;-62
2020/12/27 04:43:23;;;;;;;3.33;2.20;;;;;;;-5.81;76.44;98725.72;4901616;29;20100;-64
2020/12/27 04:45:49;;;;;;;4.03;2.33;;;;;;;-5.82;75.65;98723.19;4903988;29;20470;-62
2020/12/27 04:48:17;;;;;;;3.77;2.80;;;;;;;-5.77;76.32;98730.06;4900624;29;20040;-63
2020/12/27 04:50:44;;;;;;;3.33;2.40;;;;;;;-5.78;75.40;98723.38;4900075;29;20044;-62
2020/12/27 04:53:12;;;;;;;3.80;2.37;;;;;;;-5.77;75.28;98714.25;4900232;29;20033;-63
2020/12/27 04:55:38;;;;;;;4.17;2.37;;;;;;;-5.90;75.76;98719.50;4909068;29;20036;-62
2020/12/27 04:58:07;;;;;;;3.80;2.70;;;;;;;-5.85;75.77;98716.38;4920422;29;20431;-62
2020/12/27 05:00:32;;;;;;;5.87;2.33;;;;;;;-5.94;76.32;98713.50;4918898;29;20124;-62
2020/12/27 05:03:00;;;;;;;4.97;2.50;;;;;;;-6.00;76.69;98705.75;4919718;29;20040;-62
2020/12/27 05:05:25;;;;;;;5.07;2.60;;;;;;;-6.06;77.08;98700.44;4918946;29;20056;-62
2020/12/27 05:07:52;;;;;;;3.30;2.33;;;;;;;-6.05;76.99;98694.69;4920506;29;20454;-62
2020/12/27 05:10:18;;;;;;;3.47;2.53;;;;;;;-6.11;77.38;98689.44;4918333;29;20461;-63
2020/12/27 05:12:43;;;;;;;5.40;2.77;;;;;;;-6.14;77.61;98691.75;4919867;29;20083;-62
2020/12/27 05:15:09;;;;;;;3.37;2.37;;;;;;;-6.13;77.13;98688.47;4918452;29;20124;-62
2020/12/27 05:17:36;;;;;;;4.33;2.77;;;;;;;-6.14;76.80;98686.75;4919090;29;20466;-62
2020/12/27 05:20:14;;;;;;;4.37;3.07;;;;;;;-6.11;77.66;98684.44;4911273;29;20048;-62
2020/12/27 05:22:40;;;;;;;3.67;2.70;;;;;;;-6.18;77.16;98688.25;4917002;29;20373;-62
2020/12/27 05:25:05;;;;;;;5.57;3.20;;;;;;;-6.22;76.99;98681.44;4919228;29;20044;-62
2020/12/27 05:27:32;;;;;;;5.97;3.00;;;;;;;-6.21;76.89;98682.28;4919009;29;20035;-62
2020/12/27 05:30:00;;;;;;;5.63;4.00;;;;;;;-6.24;76.81;98665.53;4919086;29;20031;-62
2020/12/27 05:32:29;;;;;;;6.07;3.43;;;;;;;-6.26;76.32;98663.75;4905140;29;20062;-63
2020/12/27 05:34:54;;;;;;;4.90;3.20;;;;;;;-6.31;76.98;98650.19;4900210;29;20032;-63
2020/12/27 05:37:20;;;;;;;4.73;3.50;;;;;;;-6.33;76.76;98660.13;4894529;29;20036;-63
2020/12/27 05:39:47;;;;;;;7.33;4.00;;;;;;;-6.39;77.19;98652.34;4919116;29;20379;-62
2020/12/27 05:42:12;;;;;;;7.67;4.13;;;;;;;-6.45;78.16;98648.72;4908290;29;20051;-62
2020/12/27 05:44:37;;;;;;;6.63;4.47;;;;;;;-6.47;78.24;98644.50;4900165;29;20052;-63
2020/12/27 05:47:04;;;;;;;14.20;5.70;;;;;;;-6.32;78.32;98638.53;4874940;29;20477;-62
2020/12/27 05:49:29;;;;;;;4.83;4.13;;;;;;;-6.33;77.93;98630.19;4889070;29;20036;-62
2020/12/27 05:51:57;;;;;;;7.23;3.80;;;;;;;-6.32;77.87;98631.06;4899460;29;20597;-62
2020/12/27 05:54:36;;;;;;;8.63;4.30;;;;;;;-6.32;77.52;98626.91;4898580;29;20033;-62
2020/12/27 05:57:03;;;;;;;6.43;4.63;;;;;;;-6.37;78.07;98620.88;4899903;29;20046;-62
2020/12/27 05:59:34;;;;;;;7.03;4.47;;;;;;;-6.36;77.88;98606.72;4899135;29;20357;-62
2020/12/27 06:02:01;;;;;;;6.83;4.27;;;;;;;-6.40;78.64;98594.91;4899774;29;20037;-62
2020/12/27 06:04:45;;;;;;;6.60;4.57;;;;;;;-6.33;78.36;98579.47;4899264;29;20050;-62
2020/12/27 06:07:29;;;;;;;6.97;3.80;;;;;;;-6.24;78.27;98565.78;4899168;29;20508;-62
2020/12/27 06:10:03;;;;;;;7.18;3.83;;;;;;;-6.18;78.77;98565.19;4881037;29;20048;-62
2020/12/27 06:12:45;;;;;;;7.07;4.07;;;;;;;-6.13;77.59;98561.25;4881169;29;20459;-63
2020/12/27 06:15:23;;;;;;;5.77;4.37;;;;;;;-6.11;76.97;98554.72;4899667;29;20034;-63
2020/12/27 06:18:07;;;;;;;7.13;4.80;;;;;;;-6.10;77.32;98558.88;4897814;29;20323;-63
2020/12/27 06:20:35;;;;;;;9.48;5.20;;;;;;;-6.21;77.03;98558.44;4889511;29;20028;-63
2020/12/27 06:23:02;;;;;;;7.23;4.97;;;;;;;-6.27;77.25;98554.78;4898352;29;20047;-63
2020/12/27 06:25:28;;;;;;;7.87;4.27;;;;;;;-6.25;77.02;98570.69;4899459;29;20051;-63
2020/12/27 06:27:55;;;;;;;9.17;4.53;;;;;;;-6.29;76.28;98564.72;4897625;29;20370;-63
2020/12/27 06:30:23;;;;;;;7.07;4.03;;;;;;;-6.31;76.56;98566.28;4899370;29;20036;-62
2020/12/27 06:32:57;;;;;;;7.07;4.67;;;;;;;-6.32;77.01;98567.03;4898277;29;20052;-62
2020/12/27 06:35:34;;;;;;;9.17;5.20;;;;;;;-6.29;77.10;98551.38;4899172;29;20048;-64
2020/12/27 06:38:01;;;;;;;8.83;5.13;;;;;;;-6.30;77.04;98552.16;4898096;29;20039;-63
2020/12/27 06:40:27;;;;;;;14.20;6.07;;;;;;;-6.39;77.13;98542.63;4899036;29;20078;-63
2020/12/27 06:43:22;;;;;;;7.57;6.17;;;;;;;-6.29;77.20;98538.91;4898066;29;20056;-62
2020/12/27 06:45:51;;;;;;;10.97;5.97;;;;;;;-6.30;77.10;98527.22;4881945;29;20044;-63
2020/12/27 06:48:37;;;;;;;8.33;5.70;;;;;;;-6.27;77.25;98530.72;4897808;29;20025;-63
2020/12/27 06:51:03;;;;;;;11.60;6.47;;;;;;;-6.27;76.67;98537.34;4898587;29;20054;-63
2020/12/27 06:53:42;;;;;;;10.80;5.87;;;;;;;-6.21;77.71;98537.63;4898074;29;20048;-63
2020/12/27 06:56:13;;;;;;;10.50;5.90;;;;;;;-6.31;77.42;98537.97;4898774;29;20145;-62
2020/12/27 06:58:39;;;;;;;22.57;8.37;;;;;;;-6.29;77.78;98546.41;4897970;29;20067;-62
2020/12/27 07:01:15;;;;;;;24.70;12.73;;;;;;;-6.22;77.30;98534.25;4898840;29;20036;-63
2020/12/27 07:03:42;;;;;;;22.87;9.77;;;;;;;-6.21;77.47;98547.59;4897851;29;20044;-62
2020/12/27 07:06:18;;;;;;;25.03;10.17;;;;;;;-6.16;76.39;98543.66;4898789;29;20429;-63
2020/12/27 07:08:45;;;;;;;21.87;10.03;;;;;;;-6.21;76.93;98543.47;4896977;29;20366;-62
2020/12/27 07:11:16;;;;;;;20.57;10.33;;;;;;;-6.12;77.16;98543.03;4898254;29;20047;-63
2020/12/27 07:13:46;;;;;;;18.43;9.33;;;;;;;-6.10;76.71;98541.44;4894938;29;20344;-62
2020/12/27 07:16:15;;;;;;;19.77;9.57;;;;;;;-6.00;77.40;98538.56;4898116;29;20032;-62
2020/12/27 07:18:40;;;;;;;22.50;9.80;;;;;;;-5.97;76.84;98528.72;4896039;29;20048;-62
2020/12/27 07:21:12;;;;;;;25.17;9.80;;;;;;;-5.82;76.00;98529.34;4898086;29;20043;-62
2020/12/27 07:23:43;;;;;;;19.03;8.33;;;;;;;-5.79;76.65;98522.00;4887135;29;20042;-62
2020/12/27 07:26:11;;;;;;;16.40;8.63;;;;;;;-5.63;75.59;98511.00;4898234;29;20382;-62
2020/12/27 07:28:37;;;;;;;12.80;6.97;;;;;;;-5.52;75.58;98505.66;4896560;29;20028;-62
2020/12/27 07:31:05;;;;;;;14.53;7.20;;;;;;;-5.38;76.33;98497.88;4898825;29;20541;-63
2020/12/27 07:33:34;;;;;;;14.30;7.00;;;;;;;-5.27;76.38;98490.06;4896974;29;20040;-63
2020/12/27 07:36:10;;;;;;;15.30;6.47;;;;;;;-5.02;76.11;98486.03;4898669;29;20037;-63
2020/12/27 07:39:01;;;;;;;10.50;6.33;;;;;;;-4.79;75.74;98496.09;4895341;29;20131;-62
2020/12/27 07:41:29;;;;;;;7.53;4.37;;;;;;;-4.50;76.13;98493.88;4879689;29;20037;-62
2020/12/27 07:43:56;;;;;;;7.70;4.27;;;;;;;-4.24;75.15;98486.50;4865746;29;20459;-62
2020/12/27 07:46:23;;;;;;;6.83;4.10;;;;;;;-3.99;74.81;98495.78;4917714;29;20071;-62
2020/12/27 07:48:49;;;;;;;6.13;3.43;;;;;;;-3.74;74.28;98497.50;4913945;29;20091;-62
2020/12/27 07:51:15;;;;;;;8.03;4.57;;;;;;;-3.58;72.74;98502.22;4896833;29;20048;-63
2020/12/27 07:53:51;;;;;;;18.67;9.30;;;;;;;-3.53;71.76;98504.88;4898349;29;20092;-63
2020/12/27 07:56:21;;;;;;;14.40;8.47;;;;;;;-3.45;71.01;98504.34;4898490;29;20352;-63
2020/12/27 07:58:51;;;;;;;12.07;6.87;;;;;;;-3.38;71.12;98502.88;4899802;29;20131;-63
2020/12/27 08:01:21;;;;;;;13.23;6.60;;;;;;;-3.27;70.78;98499.09;4902346;29;20075;-63
2020/12/27 08:03:57;;;;;;;9.17;5.80;;;;;;;-2.96;70.85;98481.69;4901982;29;20040;-63
2020/12/27 08:06:24;;;;;;;5.43;2.97;;;;;;;-2.61;69.61;98480.28;4899683;29;20115;-63
2020/12/27 08:09:09;;;;;;;2.83;2.50;;;;;;;-2.31;69.62;98477.81;4901054;29;20033;-63
2020/12/27 08:11:36;;;;;;;2.57;2.10;;;;;;;-2.04;68.59;98475.25;4915628;29;20050;-63
2020/12/27 08:14:04;;;;;;;3.13;2.07;;;;;;;-1.71;67.80;98467.75;4898841;29;20041;-63
2020/12/27 08:16:30;;;;;;;5.60;2.33;;;;;;;-1.61;67.31;98473.06;4900562;29;20104;-63
2020/12/27 08:19:12;;;;;;;4.20;2.73;;;;;;;-1.34;65.88;98467.88;4899890;29;20036;-63
2020/12/27 08:21:41;;;;;;;2.93;2.27;;;;;;;-1.23;65.60;98469.00;4919311;29;20362;-63
2020/12/27 08:24:08;;;;;;;2.63;2.20;;;;;;;-1.27;65.35;98464.69;4909517;29;20044;-63
2020/12/27 08:26:37;;;;;;;6.13;2.70;;;;;;;-1.21;65.33;98462.34;4914047;29;20457;-62
2020/12/27 08:29:15;;;;;;;2.57;2.37;;;;;;;-0.89;64.69;98452.22;4901914;29;20044;-63
2020/12/27 08:31:42;;;;;;;4.57;2.20;;;;;;;-0.87;63.63;98445.53;4886120;29;20052;-63
2020/12/27 08:34:10;;;;;;;4.93;2.73;;;;;;;-0.72;63.56;98441.69;4881732;29;20128;-63
2020/12/27 08:36:38;;;;;;;4.50;3.50;;;;;;;-0.52;63.29;98430.41;4904481;29;20044;-62
2020/12/27 08:39:11;;;;;;;4.57;3.17;;;;;;;-0.55;63.20;98414.34;4919736;29;20047;-61
2020/12/27 08:41:41;;;;;;;3.73;2.70;;;;;;;-0.38;62.88;98422.28;4907792;29;20055;-62
2020/12/27 08:44:19;;;;;;;3.87;2.50;;;;;;;-0.28;62.78;98419.13;4901391;29;20055;-62
2020/12/27 08:46:49;;;;;;;5.13;2.13;;;;;;;-0.09;61.31;98416.16;4900822;29;20040;-63
2020/12/27 08:49:30;;;;;;;5.63;2.90;;;;;;;-0.03;61.04;98411.22;4901092;29;20458;-62
2020/12/27 08:52:03;;;;;;;3.40;2.23;;;;;;;0.14;60.26;98393.88;4888065;29;20109;-64
2020/12/27 08:54:31;;;;;;;3.70;2.70;;;;;;;0.40;58.48;98380.94;4882185;29;20154;-63
2020/12/27 08:56:59;;;;;;;2.63;2.43;;;;;;;0.33;59.73;98375.75;4892841;29;20036;-63
2020/12/27 08:59:24;;;;;;;2.40;1.93;;;;;;;0.53;58.46;98368.53;4901100;29;20132;-63
2020/12/27 09:01:50;;;;;;;3.77;2.37;;;;;;;0.43;58.75;98368.38;4900330;29;20116;-63
2020/12/27 09:04:21;;;;;;;2.70;1.93;;;;;;;0.68;58.18;98363.75;4900719;29;20059;-63
2020/12/27 09:06:56;;;;;;;4.77;1.87;;;;;;;0.72;58.35;98363.78;4900247;29;20048;-63
2020/12/27 09:09:22;;;;;;;4.13;2.03;;;;;;;0.87;57.39;98358.97;4900560;29;20115;-61
2020/12/27 09:11:48;;;;;;;2.50;2.10;;;;;;;0.98;57.58;98354.06;4899910;29;20028;-63
2020/12/27 09:14:36;;;;;;;4.13;2.90;;;;;;;1.20;55.86;98343.44;4900443;29;20032;-62
2020/12/27 09:17:08;;;;;;;7.03;3.60;;;;;;;1.29;54.80;98336.00;4900415;29;20077;-62
2020/12/27 09:19:35;;;;;;;9.87;5.10;;;;;;;1.09;54.90;98339.09;4900568;29;20119;-62
2020/12/27 09:22:05;;;;;;;3.23;2.20;;;;;;;1.20;54.31;98333.34;4899891;29;20028;-62
2020/12/27 09:24:30;;;;;;;2.30;1.83;;;;;;;1.12;55.05;98322.31;4883714;29;20036;-63
2020/12/27 09:27:10;;;;;;;3.47;2.47;;;;;;;1.23;54.47;98319.94;4899625;29;20493;-63
2020/12/27 09:29:36;;;;;;;4.73;2.63;;;;;;;1.35;53.42;98308.31;4900843;29;20032;-63
2020/12/27 09:32:12;;;;;;;4.23;2.07;;;;;;;1.55;53.12;98298.44;4899484;29;20032;-62
2020/12/27 09:34:39;;;;;;;2.00;1.50;;;;;;;1.57;52.78;98296.75;4900560;29;20071;-62
2020/12/27 09:37:14;;;;;;;3.53;1.90;;;;;;;1.47;52.63;98282.34;4899494;29;20477;-62
2020/12/27 09:39:40;;;;;;;2.73;1.70;;;;;;;1.59;52.06;98262.25;4900719;29;20036;-63
2020/12/27 09:42:05;;;;;;;3.47;2.10;;;;;;;1.73;51.65;98258.19;4899403;29;20155;-62
2020/12/27 09:44:31;;;;;;;4.60;3.57;;;;;;;1.88;51.76;98249.06;4905654;29;20143;-62
2020/12/27 09:46:58;;;;;;;6.73;4.30;;;;;;;1.76;53.17;98243.06;4918681;29;20457;-62
2020/12/27 09:49:32;;;;;;;6.17;2.67;;;;;;;1.97;51.91;98222.19;4916608;29;20044;-62
2020/12/27 09:52:07;;;;;;;4.33;2.83;;;;;;;1.99;51.19;98212.94;4882150;29;20533;-63
2020/12/27 09:54:38;;;;;;;5.23;3.70;;;;;;;1.91;52.38;98216.25;4899985;29;20382;-63
2020/12/27 09:57:12;;;;;;;3.20;2.27;;;;;;;2.11;52.68;98199.53;4905679;29;20366;-62
2020/12/27 09:59:37;;;;;;;3.00;2.70;;;;;;;2.25;52.88;98203.84;4918737;29;20043;-63
2020/12/27 10:02:04;;;;;;;3.77;2.53;;;;;;;2.02;54.22;98207.06;4895430;29;20076;-63
2020/12/27 10:04:29;;;;;;;3.50;2.57;;;;;;;1.81;54.38;98195.09;4900289;29;20172;-63
2020/12/27 10:06:54;;;;;;;4.13;2.13;;;;;;;1.99;54.74;98195.25;4898857;29;20119;-63
2020/12/27 10:09:20;;;;;;;4.23;2.47;;;;;;;1.93;54.62;98185.09;4899881;29;20047;-62
2020/12/27 10:11:45;;;;;;;4.77;2.63;;;;;;;1.60;55.50;98185.66;4882088;29;20576;-63
2020/12/27 10:14:10;;;;;;;5.03;3.10;;;;;;;2.02;54.86;98177.56;4882860;29;20037;-63
2020/12/27 10:16:36;;;;;;;2.77;2.10;;;;;;;2.05;54.14;98166.63;4899341;29;20095;-63
2020/12/27 10:19:01;;;;;;;2.40;2.17;;;;;;;2.11;54.21;98157.41;4899065;29;20379;-63
2020/12/27 10:21:27;;;;;;;4.20;3.17;;;;;;;2.21;54.13;98153.25;4898871;29;20076;-64
2020/12/27 10:23:52;;;;;;;4.83;3.07;;;;;;;2.41;53.11;98149.16;4900555;29;20071;-63
2020/12/27 10:26:17;;;;;;;6.53;4.00;;;;;;;2.36;53.91;98140.69;4917989;29;20039;-62
2020/12/27 10:28:43;;;;;;;7.40;4.13;;;;;;;2.16;54.41;98127.97;4887562;29;20028;-62
2020/12/27 10:31:09;;;;;;;5.30;3.17;;;;;;;2.21;54.29;98115.31;4890265;29;20040;-61
2020/12/27 10:33:35;;;;;;;2.67;2.30;;;;;;;2.15;53.97;98107.72;4893930;29;20029;-62
2020/12/27 10:36:00;;;;;;;2.30;1.80;;;;;;;2.04;53.77;98115.22;4899398;29;20366;-62
2020/12/27 10:38:26;;;;;;;3.13;2.33;;;;;;;2.27;52.94;98095.13;4889701;29;20043;-62
2020/12/27 10:40:51;;;;;;;3.60;1.93;;;;;;;2.21;53.50;98092.56;4899252;29;20047;-62
2020/12/27 10:43:18;;;;;;;4.90;2.67;;;;;;;2.45;52.36;98085.09;4887852;29;20040;-62
2020/12/27 10:45:43;;;;;;;4.07;2.40;;;;;;;2.45;53.82;98081.72;4865687;29;20047;-62
2020/12/27 10:48:08;;;;;;;3.60;2.00;;;;;;;2.52;52.46;98076.69;4865546;29;20364;-62
2020/12/27 10:50:40;;;;;;;4.03;2.83;;;;;;;2.48;52.28;98056.44;4865111;29;20452;-62
2020/12/27 10:53:06;;;;;;;4.60;2.63;;;;;;;2.50;53.53;98047.19;4880353;29;20132;-62
2020/12/27 10:55:32;;;;;;;2.90;2.20;;;;;;;2.40;52.83;98040.38;4880391;29;20132;-62
2020/12/27 10:57:57;;;;;;;3.23;2.43;;;;;;;2.34;53.70;98032.75;4878403;29;20120;-61
2020/12/27 11:00:23;;;;;;;2.80;2.17;;;;;;;2.38;52.75;98021.84;4871471;29;20097;-62
2020/12/27 11:02:48;;;;;;;4.17;2.07;;;;;;;2.50;52.07;98015.13;4880171;29;20037;-61
2020/12/27 11:05:13;;;;;;;1.73;1.63;;;;;;;2.45;52.85;98004.16;4879330;29;20483;-62
2020/12/27 11:07:39;;;;;;;2.67;2.37;;;;;;;2.47;52.31;98012.59;4879089;29;20108;-62
2020/12/27 11:10:05;;;;;;;3.37;1.50;;;;;;;2.30;53.19;98004.94;4879742;29;20041;-62
2020/12/27 11:12:30;;;;;;;2.50;1.80;;;;;;;2.58;52.28;98002.50;4879578;29;20044;-63
2020/12/27 11:14:56;;;;;;;2.03;1.73;;;;;;;2.45;52.57;97988.97;4879425;29;20415;-62
2020/12/27 11:17:23;;;;;;;3.00;1.87;;;;;;;2.27;53.45;97993.97;4879496;29;20032;-62
2020/12/27 11:19:48;;;;;;;4.93;2.47;;;;;;;2.23;53.61;97994.81;4879666;29;20033;-62
2020/12/27 11:22:14;;;;;;;4.13;1.90;;;;;;;2.13;53.40;97986.34;4879105;29;20455;-61
2020/12/27 11:24:39;;;;;;;2.80;2.00;;;;;;;2.23;54.15;97982.16;4879665;29;20419;-61
2020/12/27 11:27:05;;;;;;;3.17;2.30;;;;;;;2.34;53.00;97977.97;4879633;29;20064;-61
2020/12/27 11:29:30;;;;;;;2.30;2.10;;;;;;;2.42;51.96;97960.31;4879452;29;20109;-62
2020/12/27 11:31:56;;;;;;;4.10;2.40;;;;;;;2.46;53.07;97956.94;4894177;29;20033;-63
2020/12/27 11:34:21;;;;;;;2.97;2.53;;;;;;;2.38;53.24;97946.78;4884145;29;20064;-62
2020/12/27 11:36:49;;;;;;;3.33;2.20;;;;;;;2.51;52.21;97930.78;4884687;29;20048;-62
2020/12/27 11:39:15;;;;;;;4.63;2.17;;;;;;;2.71;52.29;97929.16;4884983;29;20359;-63